sensor_id;sensor_type;location;lat;lon;timestamp;temperature;humidity
6256;DHT22;3161;48.794;9.784;2023-04-24T00:00:05;12.30;99.90
6256;DHT22;3161;48.794;9.784;2023-04-24T00:02:35;12.30;99.90
6256;DHT22;3161;48.794;9.784;2023-04-24T00:05:05;12.20;99.90
6256;DHT22;3161;48.794;9.784;2023-04-24T00:07:34;12.20;99.90
6256;DHT22;3161;48.794;9.784;2023-04-24T00:10:02;12.20;99.90
6256;DHT22;3161;48.794;9.784;2023-04-24T00:12:30;12.10;99.90
6256;DHT22;3161;48.794;9.784;2023-04-24T00:14:58;12.10;99.90
6256;DHT22;3161;48.794;9.784;2023-04-24T00:17:25;12.10;99.90
6256;DHT22;3161;48.794;9.784;2023-04-24T00:19:53;12.00;99.90
6256;DHT22;3161;48.794;9.784;2023-04-24T00:22:28;12.00;99.90
6256;DHT22;3161;48.794;9.784;2023-04-24T00:24:56;12.00;99.90
6256;DHT22;3161;48.794;9.784;2023-04-24T00:27:24;12.00;99.90
6256;DHT22;3161;48.794;9.784;2023-04-24T00:29:51;12.00;99.90
6256;DHT22;3161;48.794;9.784;2023-04-24T00:32:19;12.10;99.90
6256;DHT22;3161;48.794;9.784;2023-04-24T00:34:47;12.00;99.90
6256;DHT22;3161;48.794;9.784;2023-04-24T00:37:14;12.00;99.90
6256;DHT22;3161;48.794;9.784;2023-04-24T00:39:42;12.00;99.90
6256;DHT22;3161;48.794;9.784;2023-04-24T00:42:09;12.00;99.90
6256;DHT22;3161;48.794;9.784;2023-04-24T00:44:37;12.00;99.90
6256;DHT22;3161;48.794;9.784;2023-04-24T00:47:06;12.00;99.90
6256;DHT22;3161;48.794;9.784;2023-04-24T00:49:34;12.00;99.90
6256;DHT22;3161;48.794;9.784;2023-04-24T00:52:02;11.90;99.90
6256;DHT22;3161;48.794;9.784;2023-04-24T00:54:31;11.90;99.90
6256;DHT22;3161;48.794;9.784;2023-04-24T00:56:58;11.90;99.90
6256;DHT22;3161;48.794;9.784;2023-04-24T00:59:27;12.00;99.90
6256;DHT22;3161;48.794;9.784;2023-04-24T01:01:56;12.00;99.90
6256;DHT22;3161;48.794;9.784;2023-04-24T01:04:24;12.00;99.90
6256;DHT22;3161;48.794;9.784;2023-04-24T01:06:53;12.00;99.90
6256;DHT22;3161;48.794;9.784;2023-04-24T01:09:23;12.00;99.90
6256;DHT22;3161;48.794;9.784;2023-04-24T01:11:51;12.00;99.90
6256;DHT22;3161;48.794;9.784;2023-04-24T01:14:19;12.00;99.90
6256;DHT22;3161;48.794;9.784;2023-04-24T01:16:47;12.00;99.90
6256;DHT22;3161;48.794;9.784;2023-04-24T01:19:15;12.00;99.90
6256;DHT22;3161;48.794;9.784;2023-04-24T01:21:44;12.00;99.90
6256;DHT22;3161;48.794;9.784;2023-04-24T01:24:35;12.00;99.90
6256;DHT22;3161;48.794;9.784;2023-04-24T01:27:04;12.00;99.90
6256;DHT22;3161;48.794;9.784;2023-04-24T01:29:32;12.00;99.90
6256;DHT22;3161;48.794;9.784;2023-04-24T01:31:59;12.00;99.90
6256;DHT22;3161;48.794;9.784;2023-04-24T01:34:28;12.00;99.90
6256;DHT22;3161;48.794;9.784;2023-04-24T01:36:55;12.00;99.90
6256;DHT22;3161;48.794;9.784;2023-04-24T01:39:23;12.00;99.90
6256;DHT22;3161;48.794;9.784;2023-04-24T01:41:52;11.90;99.90
6256;DHT22;3161;48.794;9.784;2023-04-24T01:44:20;12.00;99.90
6256;DHT22;3161;48.794;9.784;2023-04-24T01:46:48;11.50;99.90
6256;DHT22;3161;48.794;9.784;2023-04-24T01:49:15;12.00;99.90
6256;DHT22;3161;48.794;9.784;2023-04-24T01:51:43;12.00;99.90
6256;DHT22;3161;48.794;9.784;2023-04-24T01:54:11;12.00;99.90
6256;DHT22;3161;48.794;9.784;2023-04-24T01:56:40;11.90;99.90
6256;DHT22;3161;48.794;9.784;2023-04-24T01:59:10;11.90;99.90
6256;DHT22;3161;48.794;9.784;2023-04-24T02:01:39;11.90;99.90
6256;DHT22;3161;48.794;9.784;2023-04-24T02:04:07;11.90;99.90
6256;DHT22;3161;48.794;9.784;2023-04-24T02:06:35;11.90;99.90
6256;DHT22;3161;48.794;9.784;2023-04-24T02:09:03;11.90;99.90
6256;DHT22;3161;48.794;9.784;2023-04-24T02:11:31;11.90;99.90
6256;DHT22;3161;48.794;9.784;2023-04-24T02:14:03;11.90;99.90
6256;DHT22;3161;48.794;9.784;2023-04-24T02:16:30;11.90;99.90
6256;DHT22;3161;48.794;9.784;2023-04-24T02:18:59;11.90;99.90
6256;DHT22;3161;48.794;9.784;2023-04-24T02:21:26;11.90;99.90
6256;DHT22;3161;48.794;9.784;2023-04-24T02:23:54;11.90;99.90
6256;DHT22;3161;48.794;9.784;2023-04-24T02:26:22;11.90;99.90
6256;DHT22;3161;48.794;9.784;2023-04-24T02:28:49;11.80;99.90
6256;DHT22;3161;48.794;9.784;2023-04-24T02:31:17;11.80;99.90
6256;DHT22;3161;48.794;9.784;2023-04-24T02:33:45;11.80;99.90
6256;DHT22;3161;48.794;9.784;2023-04-24T02:36:12;11.80;99.90
6256;DHT22;3161;48.794;9.784;2023-04-24T02:38:40;11.80;99.90
6256;DHT22;3161;48.794;9.784;2023-04-24T02:41:08;11.70;99.90
6256;DHT22;3161;48.794;9.784;2023-04-24T02:43:36;11.70;99.90
6256;DHT22;3161;48.794;9.784;2023-04-24T02:46:03;11.70;99.90
6256;DHT22;3161;48.794;9.784;2023-04-24T02:48:31;11.70;99.90
6256;DHT22;3161;48.794;9.784;2023-04-24T02:50:58;11.70;99.90
6256;DHT22;3161;48.794;9.784;2023-04-24T02:53:26;11.70;99.90
6256;DHT22;3161;48.794;9.784;2023-04-24T02:55:54;11.60;99.90
6256;DHT22;3161;48.794;9.784;2023-04-24T02:58:21;11.60;99.90
6256;DHT22;3161;48.794;9.784;2023-04-24T03:00:49;11.70;99.90
6256;DHT22;3161;48.794;9.784;2023-04-24T03:03:18;11.70;99.90
6256;DHT22;3161;48.794;9.784;2023-04-24T03:05:46;11.50;99.90
6256;DHT22;3161;48.794;9.784;2023-04-24T03:08:13;11.50;99.90
6256;DHT22;3161;48.794;9.784;2023-04-24T03:10:41;11.40;99.90
6256;DHT22;3161;48.794;9.784;2023-04-24T03:13:08;11.50;99.90
6256;DHT22;3161;48.794;9.784;2023-04-24T03:15:36;11.50;99.90
6256;DHT22;3161;48.794;9.784;2023-04-24T03:18:03;11.50;99.90
6256;DHT22;3161;48.794;9.784;2023-04-24T03:20:30;11.50;99.90
6256;DHT22;3161;48.794;9.784;2023-04-24T03:22:58;11.40;99.90
6256;DHT22;3161;48.794;9.784;2023-04-24T03:25:25;11.50;99.90
6256;DHT22;3161;48.794;9.784;2023-04-24T03:27:53;11.50;99.90
6256;DHT22;3161;48.794;9.784;2023-04-24T03:30:21;11.50;99.90
6256;DHT22;3161;48.794;9.784;2023-04-24T03:32:48;11.50;99.90
6256;DHT22;3161;48.794;9.784;2023-04-24T03:35:16;11.50;99.90
6256;DHT22;3161;48.794;9.784;2023-04-24T03:37:43;11.50;99.90
6256;DHT22;3161;48.794;9.784;2023-04-24T03:40:11;11.60;99.90
6256;DHT22;3161;48.794;9.784;2023-04-24T03:42:39;11.50;99.90
6256;DHT22;3161;48.794;9.784;2023-04-24T03:45:07;11.50;99.90
6256;DHT22;3161;48.794;9.784;2023-04-24T03:47:35;11.50;99.90
6256;DHT22;3161;48.794;9.784;2023-04-24T03:50:03;11.60;99.90
6256;DHT22;3161;48.794;9.784;2023-04-24T03:52:30;11.60;99.90
6256;DHT22;3161;48.794;9.784;2023-04-24T03:54:58;11.60;99.90
6256;DHT22;3161;48.794;9.784;2023-04-24T03:57:25;11.70;99.90
6256;DHT22;3161;48.794;9.784;2023-04-24T03:59:53;11.60;99.90
6256;DHT22;3161;48.794;9.784;2023-04-24T04:02:20;11.60;99.90
6256;DHT22;3161;48.794;9.784;2023-04-24T04:04:48;11.60;99.90
6256;DHT22;3161;48.794;9.784;2023-04-24T04:07:16;11.60;99.90
6256;DHT22;3161;48.794;9.784;2023-04-24T04:09:43;11.60;99.90
6256;DHT22;3161;48.794;9.784;2023-04-24T04:12:11;11.60;99.90
6256;DHT22;3161;48.794;9.784;2023-04-24T04:14:39;11.60;99.90
6256;DHT22;3161;48.794;9.784;2023-04-24T04:17:06;11.60;99.90
6256;DHT22;3161;48.794;9.784;2023-04-24T04:19:34;11.60;99.90
6256;DHT22;3161;48.794;9.784;2023-04-24T04:22:02;11.60;99.90
6256;DHT22;3161;48.794;9.784;2023-04-24T04:24:30;11.60;99.90
6256;DHT22;3161;48.794;9.784;2023-04-24T04:26:57;11.60;99.90
6256;DHT22;3161;48.794;9.784;2023-04-24T04:29:25;11.60;99.90
6256;DHT22;3161;48.794;9.784;2023-04-24T04:31:53;11.50;99.90
6256;DHT22;3161;48.794;9.784;2023-04-24T04:34:21;11.60;99.90
6256;DHT22;3161;48.794;9.784;2023-04-24T04:36:49;11.50;99.90
6256;DHT22;3161;48.794;9.784;2023-04-24T04:39:16;11.50;99.90
6256;DHT22;3161;48.794;9.784;2023-04-24T04:41:45;11.60;99.90
6256;DHT22;3161;48.794;9.784;2023-04-24T04:44:16;11.50;99.90
6256;DHT22;3161;48.794;9.784;2023-04-24T04:46:43;11.50;99.90
6256;DHT22;3161;48.794;9.784;2023-04-24T04:49:11;11.50;99.90
6256;DHT22;3161;48.794;9.784;2023-04-24T04:51:39;11.50;99.90
6256;DHT22;3161;48.794;9.784;2023-04-24T04:54:07;11.50;99.90
6256;DHT22;3161;48.794;9.784;2023-04-24T04:56:34;11.50;99.90
6256;DHT22;3161;48.794;9.784;2023-04-24T04:59:02;11.50;99.90
6256;DHT22;3161;48.794;9.784;2023-04-24T05:01:29;11.50;99.90
6256;DHT22;3161;48.794;9.784;2023-04-24T05:03:57;11.50;99.90
6256;DHT22;3161;48.794;9.784;2023-04-24T05:06:24;11.50;99.90
6256;DHT22;3161;48.794;9.784;2023-04-24T05:08:52;11.50;99.90
6256;DHT22;3161;48.794;9.784;2023-04-24T05:11:21;11.50;99.90
6256;DHT22;3161;48.794;9.784;2023-04-24T05:13:49;11.60;99.90
6256;DHT22;3161;48.794;9.784;2023-04-24T05:16:16;11.60;99.90
6256;DHT22;3161;48.794;9.784;2023-04-24T05:18:44;11.60;99.90
6256;DHT22;3161;48.794;9.784;2023-04-24T05:21:11;11.60;99.90
6256;DHT22;3161;48.794;9.784;2023-04-24T05:23:39;11.60;99.90
6256;DHT22;3161;48.794;9.784;2023-04-24T05:26:06;11.50;99.90
6256;DHT22;3161;48.794;9.784;2023-04-24T05:28:34;11.40;99.90
6256;DHT22;3161;48.794;9.784;2023-04-24T05:31:03;11.30;99.90
6256;DHT22;3161;48.794;9.784;2023-04-24T05:33:31;11.20;99.90
6256;DHT22;3161;48.794;9.784;2023-04-24T05:35:58;11.20;99.90
6256;DHT22;3161;48.794;9.784;2023-04-24T05:38:26;11.20;99.90
6256;DHT22;3161;48.794;9.784;2023-04-24T05:40:53;11.10;99.90
6256;DHT22;3161;48.794;9.784;2023-04-24T05:43:21;11.10;99.90
6256;DHT22;3161;48.794;9.784;2023-04-24T05:45:48;11.00;99.90
6256;DHT22;3161;48.794;9.784;2023-04-24T05:48:16;10.90;99.90
6256;DHT22;3161;48.794;9.784;2023-04-24T05:50:43;10.90;99.90
6256;DHT22;3161;48.794;9.784;2023-04-24T05:53:11;10.90;99.90
6256;DHT22;3161;48.794;9.784;2023-04-24T05:55:38;10.90;99.90
6256;DHT22;3161;48.794;9.784;2023-04-24T05:58:06;10.90;99.90
6256;DHT22;3161;48.794;9.784;2023-04-24T06:00:34;11.00;99.90
6256;DHT22;3161;48.794;9.784;2023-04-24T06:03:01;11.00;99.90
6256;DHT22;3161;48.794;9.784;2023-04-24T06:05:30;11.10;99.90
6256;DHT22;3161;48.794;9.784;2023-04-24T06:07:57;11.00;99.90
6256;DHT22;3161;48.794;9.784;2023-04-24T06:10:25;11.00;99.90
6256;DHT22;3161;48.794;9.784;2023-04-24T06:12:52;11.10;99.90
6256;DHT22;3161;48.794;9.784;2023-04-24T06:15:21;11.10;99.90
6256;DHT22;3161;48.794;9.784;2023-04-24T06:17:49;11.20;99.90
6256;DHT22;3161;48.794;9.784;2023-04-24T06:20:16;11.20;99.90
6256;DHT22;3161;48.794;9.784;2023-04-24T06:22:44;11.20;99.90
6256;DHT22;3161;48.794;9.784;2023-04-24T06:25:11;11.20;99.90
6256;DHT22;3161;48.794;9.784;2023-04-24T06:27:39;11.20;99.90
6256;DHT22;3161;48.794;9.784;2023-04-24T06:30:08;11.20;99.90
6256;DHT22;3161;48.794;9.784;2023-04-24T06:32:35;11.20;99.90
6256;DHT22;3161;48.794;9.784;2023-04-24T06:35:03;11.30;99.90
6256;DHT22;3161;48.794;9.784;2023-04-24T06:37:33;11.30;99.90
6256;DHT22;3161;48.794;9.784;2023-04-24T06:40:00;11.40;99.90
6256;DHT22;3161;48.794;9.784;2023-04-24T06:42:28;11.40;99.90
6256;DHT22;3161;48.794;9.784;2023-04-24T06:44:56;11.50;99.90
6256;DHT22;3161;48.794;9.784;2023-04-24T06:47:23;11.60;99.90
6256;DHT22;3161;48.794;9.784;2023-04-24T06:50:10;11.70;99.90
6256;DHT22;3161;48.794;9.784;2023-04-24T06:52:38;11.80;99.90
6256;DHT22;3161;48.794;9.784;2023-04-24T06:55:06;11.80;99.90
6256;DHT22;3161;48.794;9.784;2023-04-24T06:57:34;11.90;99.90
6256;DHT22;3161;48.794;9.784;2023-04-24T07:00:02;12.00;99.90
6256;DHT22;3161;48.794;9.784;2023-04-24T07:02:31;12.20;99.90
6256;DHT22;3161;48.794;9.784;2023-04-24T07:04:59;12.50;99.90
6256;DHT22;3161;48.794;9.784;2023-04-24T07:07:27;12.70;99.90
6256;DHT22;3161;48.794;9.784;2023-04-24T07:09:55;12.80;99.90
6256;DHT22;3161;48.794;9.784;2023-04-24T07:12:22;12.80;99.90
6256;DHT22;3161;48.794;9.784;2023-04-24T07:14:51;13.10;99.90
6256;DHT22;3161;48.794;9.784;2023-04-24T07:17:18;14.20;99.90
6256;DHT22;3161;48.794;9.784;2023-04-24T07:19:46;15.70;99.90
6256;DHT22;3161;48.794;9.784;2023-04-24T07:22:13;17.50;99.90
6256;DHT22;3161;48.794;9.784;2023-04-24T07:24:44;19.20;99.90
6256;DHT22;3161;48.794;9.784;2023-04-24T07:27:12;20.60;99.90
6256;DHT22;3161;48.794;9.784;2023-04-24T07:29:41;21.80;99.90
6256;DHT22;3161;48.794;9.784;2023-04-24T07:32:08;22.80;99.90
6256;DHT22;3161;48.794;9.784;2023-04-24T07:34:36;23.40;98.90
6256;DHT22;3161;48.794;9.784;2023-04-24T07:37:04;23.60;97.40
6256;DHT22;3161;48.794;9.784;2023-04-24T07:39:32;23.00;96.10
6256;DHT22;3161;48.794;9.784;2023-04-24T07:42:00;21.80;97.70
6256;DHT22;3161;48.794;9.784;2023-04-24T07:44:28;20.60;99.40
6256;DHT22;3161;48.794;9.784;2023-04-24T07:46:56;19.50;99.90
6256;DHT22;3161;48.794;9.784;2023-04-24T07:49:23;18.60;99.90
6256;DHT22;3161;48.794;9.784;2023-04-24T07:51:51;17.90;99.90
6256;DHT22;3161;48.794;9.784;2023-04-24T07:54:18;17.30;99.90
6256;DHT22;3161;48.794;9.784;2023-04-24T07:56:46;16.70;99.90
6256;DHT22;3161;48.794;9.784;2023-04-24T07:59:14;16.20;99.90
6256;DHT22;3161;48.794;9.784;2023-04-24T08:01:41;16.30;99.90
6256;DHT22;3161;48.794;9.784;2023-04-24T08:04:09;16.30;99.90
6256;DHT22;3161;48.794;9.784;2023-04-24T08:06:36;16.10;99.90
6256;DHT22;3161;48.794;9.784;2023-04-24T08:09:04;16.30;99.90
6256;DHT22;3161;48.794;9.784;2023-04-24T08:11:32;16.30;99.90
6256;DHT22;3161;48.794;9.784;2023-04-24T08:13:59;16.10;99.90
6256;DHT22;3161;48.794;9.784;2023-04-24T08:16:27;15.80;99.90
6256;DHT22;3161;48.794;9.784;2023-04-24T08:18:54;15.40;99.90
6256;DHT22;3161;48.794;9.784;2023-04-24T08:21:22;14.90;99.90
6256;DHT22;3161;48.794;9.784;2023-04-24T08:23:50;14.40;99.90
6256;DHT22;3161;48.794;9.784;2023-04-24T08:26:17;14.00;99.90
6256;DHT22;3161;48.794;9.784;2023-04-24T08:28:45;13.70;99.90
6256;DHT22;3161;48.794;9.784;2023-04-24T08:31:12;13.50;99.90
6256;DHT22;3161;48.794;9.784;2023-04-24T08:33:40;13.30;99.90
6256;DHT22;3161;48.794;9.784;2023-04-24T08:36:08;13.20;99.90
6256;DHT22;3161;48.794;9.784;2023-04-24T08:38:36;13.10;99.90
6256;DHT22;3161;48.794;9.784;2023-04-24T08:41:03;13.20;99.90
6256;DHT22;3161;48.794;9.784;2023-04-24T08:43:33;13.70;99.90
6256;DHT22;3161;48.794;9.784;2023-04-24T08:46:04;14.40;99.90
6256;DHT22;3161;48.794;9.784;2023-04-24T08:48:32;15.00;99.90
6256;DHT22;3161;48.794;9.784;2023-04-24T08:51:00;15.70;99.90
6256;DHT22;3161;48.794;9.784;2023-04-24T08:53:28;16.10;99.90
6256;DHT22;3161;48.794;9.784;2023-04-24T08:55:57;15.90;99.90
6256;DHT22;3161;48.794;9.784;2023-04-24T08:58:28;15.50;99.90
6256;DHT22;3161;48.794;9.784;2023-04-24T09:00:57;15.20;99.90
6256;DHT22;3161;48.794;9.784;2023-04-24T09:03:27;15.00;99.90
6256;DHT22;3161;48.794;9.784;2023-04-24T09:05:55;14.90;99.90
6256;DHT22;3161;48.794;9.784;2023-04-24T09:08:25;14.80;99.90
6256;DHT22;3161;48.794;9.784;2023-04-24T09:10:53;14.60;99.90
6256;DHT22;3161;48.794;9.784;2023-04-24T09:13:21;14.40;99.90
6256;DHT22;3161;48.794;9.784;2023-04-24T09:15:49;14.30;99.90
6256;DHT22;3161;48.794;9.784;2023-04-24T09:18:17;14.10;99.90
6256;DHT22;3161;48.794;9.784;2023-04-24T09:21:06;14.00;99.90
6256;DHT22;3161;48.794;9.784;2023-04-24T09:23:33;13.90;99.90
6256;DHT22;3161;48.794;9.784;2023-04-24T09:26:03;13.90;99.90
6256;DHT22;3161;48.794;9.784;2023-04-24T09:28:36;13.80;99.90
6256;DHT22;3161;48.794;9.784;2023-04-24T09:31:09;13.90;99.90
6256;DHT22;3161;48.794;9.784;2023-04-24T09:33:37;14.10;99.90
6256;DHT22;3161;48.794;9.784;2023-04-24T09:36:04;14.50;99.90
6256;DHT22;3161;48.794;9.784;2023-04-24T09:38:34;14.80;99.90
6256;DHT22;3161;48.794;9.784;2023-04-24T09:41:07;15.20;99.90
6256;DHT22;3161;48.794;9.784;2023-04-24T09:43:35;15.50;99.90
6256;DHT22;3161;48.794;9.784;2023-04-24T09:46:07;15.50;99.90
6256;DHT22;3161;48.794;9.784;2023-04-24T09:48:37;15.50;99.90
6256;DHT22;3161;48.794;9.784;2023-04-24T09:51:06;15.40;99.90
6256;DHT22;3161;48.794;9.784;2023-04-24T09:53:35;15.30;99.90
6256;DHT22;3161;48.794;9.784;2023-04-24T09:56:07;15.10;99.90
6256;DHT22;3161;48.794;9.784;2023-04-24T09:58:37;14.90;99.90
6256;DHT22;3161;48.794;9.784;2023-04-24T10:01:04;14.70;99.90
6256;DHT22;3161;48.794;9.784;2023-04-24T10:03:33;14.60;99.90
6256;DHT22;3161;48.794;9.784;2023-04-24T10:06:05;14.60;99.90
6256;DHT22;3161;48.794;9.784;2023-04-24T10:08:36;14.60;99.90
6256;DHT22;3161;48.794;9.784;2023-04-24T10:11:04;14.50;99.90
6256;DHT22;3161;48.794;9.784;2023-04-24T10:13:32;14.30;99.90
6256;DHT22;3161;48.794;9.784;2023-04-24T10:16:01;14.20;99.90
6256;DHT22;3161;48.794;9.784;2023-04-24T10:18:31;14.10;99.90
6256;DHT22;3161;48.794;9.784;2023-04-24T10:21:00;13.90;99.90
6256;DHT22;3161;48.794;9.784;2023-04-24T10:23:29;13.90;99.90
6256;DHT22;3161;48.794;9.784;2023-04-24T10:25:57;13.90;99.90
6256;DHT22;3161;48.794;9.784;2023-04-24T10:28:27;14.00;99.90
6256;DHT22;3161;48.794;9.784;2023-04-24T10:30:55;14.20;99.90
6256;DHT22;3161;48.794;9.784;2023-04-24T10:33:23;14.30;99.90
6256;DHT22;3161;48.794;9.784;2023-04-24T10:38:47;14.80;99.90
6256;DHT22;3161;48.794;9.784;2023-04-24T10:41:18;15.00;99.90
6256;DHT22;3161;48.794;9.784;2023-04-24T10:44:10;15.20;99.90
6256;DHT22;3161;48.794;9.784;2023-04-24T10:46:38;15.60;99.90
6256;DHT22;3161;48.794;9.784;2023-04-24T10:49:07;15.80;99.90
6256;DHT22;3161;48.794;9.784;2023-04-24T10:51:50;15.80;99.90
6256;DHT22;3161;48.794;9.784;2023-04-24T10:54:24;15.40;99.90
6256;DHT22;3161;48.794;9.784;2023-04-24T10:56:52;15.10;99.90
6256;DHT22;3161;48.794;9.784;2023-04-24T10:59:27;15.00;99.90
6256;DHT22;3161;48.794;9.784;2023-04-24T11:01:56;14.70;99.90
6256;DHT22;3161;48.794;9.784;2023-04-24T11:04:33;14.70;99.90
6256;DHT22;3161;48.794;9.784;2023-04-24T11:07:03;14.80;99.90
6256;DHT22;3161;48.794;9.784;2023-04-24T11:09:32;14.80;99.90
6256;DHT22;3161;48.794;9.784;2023-04-24T11:12:09;15.00;99.90
6256;DHT22;3161;48.794;9.784;2023-04-24T11:17:36;15.70;99.90
6256;DHT22;3161;48.794;9.784;2023-04-24T11:20:16;16.10;96.70
6256;DHT22;3161;48.794;9.784;2023-04-24T11:22:39;16.30;96.30
6256;DHT22;3161;48.794;9.784;2023-04-24T11:25:07;16.30;94.10
6256;DHT22;3161;48.794;9.784;2023-04-24T11:27:43;16.10;94.60
6256;DHT22;3161;48.794;9.784;2023-04-24T11:30:11;16.00;94.40
6256;DHT22;3161;48.794;9.784;2023-04-24T11:32:40;15.80;93.50
6256;DHT22;3161;48.794;9.784;2023-04-24T11:35:21;15.60;94.60
6256;DHT22;3161;48.794;9.784;2023-04-24T11:37:54;15.40;94.20
6256;DHT22;3161;48.794;9.784;2023-04-24T11:40:23;15.20;95.10
6256;DHT22;3161;48.794;9.784;2023-04-24T11:42:53;15.10;94.70
6256;DHT22;3161;48.794;9.784;2023-04-24T11:45:24;14.90;94.60
6256;DHT22;3161;48.794;9.784;2023-04-24T11:47:52;14.70;95.00
6256;DHT22;3161;48.794;9.784;2023-04-24T11:50:23;14.70;95.00
6256;DHT22;3161;48.794;9.784;2023-04-24T11:52:52;14.60;95.70
6256;DHT22;3161;48.794;9.784;2023-04-24T11:57:54;14.60;96.80
6256;DHT22;3161;48.794;9.784;2023-04-24T12:00:28;14.60;98.00
6256;DHT22;3161;48.794;9.784;2023-04-24T12:03:10;14.60;95.70
6256;DHT22;3161;48.794;9.784;2023-04-24T12:05:39;14.60;94.90
6256;DHT22;3161;48.794;9.784;2023-04-24T12:08:06;14.60;95.80
6256;DHT22;3161;48.794;9.784;2023-04-24T12:10:34;14.60;96.90
6256;DHT22;3161;48.794;9.784;2023-04-24T12:13:03;14.50;96.10
6256;DHT22;3161;48.794;9.784;2023-04-24T12:15:31;14.40;95.20
6256;DHT22;3161;48.794;9.784;2023-04-24T12:17:59;14.20;95.20
6256;DHT22;3161;48.794;9.784;2023-04-24T12:20:31;14.00;95.70
6256;DHT22;3161;48.794;9.784;2023-04-24T12:23:00;13.90;98.00
6256;DHT22;3161;48.794;9.784;2023-04-24T12:25:29;14.00;97.40
6256;DHT22;3161;48.794;9.784;2023-04-24T12:28:11;14.20;98.00
6256;DHT22;3161;48.794;9.784;2023-04-24T12:30:49;14.60;97.20
6256;DHT22;3161;48.794;9.784;2023-04-24T12:33:21;15.00;97.10
6256;DHT22;3161;48.794;9.784;2023-04-24T12:35:53;15.30;96.80
6256;DHT22;3161;48.794;9.784;2023-04-24T12:38:27;15.40;95.10
6256;DHT22;3161;48.794;9.784;2023-04-24T12:41:04;15.30;95.10
6256;DHT22;3161;48.794;9.784;2023-04-24T12:43:32;15.20;94.90
6256;DHT22;3161;48.794;9.784;2023-04-24T12:46:00;15.00;94.50
6256;DHT22;3161;48.794;9.784;2023-04-24T12:48:28;14.70;94.30
6256;DHT22;3161;48.794;9.784;2023-04-24T12:51:00;14.50;96.20
6256;DHT22;3161;48.794;9.784;2023-04-24T12:53:28;14.30;98.90
6256;DHT22;3161;48.794;9.784;2023-04-24T12:55:59;14.00;99.50
6256;DHT22;3161;48.794;9.784;2023-04-24T12:58:26;13.90;99.80
6256;DHT22;3161;48.794;9.784;2023-04-24T13:00:54;13.80;99.90
6256;DHT22;3161;48.794;9.784;2023-04-24T13:03:22;13.90;99.90
6256;DHT22;3161;48.794;9.784;2023-04-24T13:05:49;14.10;97.50
6256;DHT22;3161;48.794;9.784;2023-04-24T13:08:17;14.40;97.50
6256;DHT22;3161;48.794;9.784;2023-04-24T13:10:44;14.60;95.90
6256;DHT22;3161;48.794;9.784;2023-04-24T13:13:12;14.60;95.00
6256;DHT22;3161;48.794;9.784;2023-04-24T13:15:39;14.50;95.60
6256;DHT22;3161;48.794;9.784;2023-04-24T13:18:07;14.40;95.20
6256;DHT22;3161;48.794;9.784;2023-04-24T13:20:35;14.30;96.50
6256;DHT22;3161;48.794;9.784;2023-04-24T13:23:02;14.10;95.10
6256;DHT22;3161;48.794;9.784;2023-04-24T13:25:34;14.00;96.10
6256;DHT22;3161;48.794;9.784;2023-04-24T13:28:01;13.90;95.80
6256;DHT22;3161;48.794;9.784;2023-04-24T13:30:28;13.80;96.90
6256;DHT22;3161;48.794;9.784;2023-04-24T13:32:56;13.80;96.30
6256;DHT22;3161;48.794;9.784;2023-04-24T13:35:23;13.70;97.10
6256;DHT22;3161;48.794;9.784;2023-04-24T13:37:51;13.50;96.10
6256;DHT22;3161;48.794;9.784;2023-04-24T13:40:18;13.50;96.60
6256;DHT22;3161;48.794;9.784;2023-04-24T13:42:46;13.40;97.30
6256;DHT22;3161;48.794;9.784;2023-04-24T13:45:13;13.40;97.50
6256;DHT22;3161;48.794;9.784;2023-04-24T13:47:41;13.50;97.80
6256;DHT22;3161;48.794;9.784;2023-04-24T13:50:09;13.40;96.80
6256;DHT22;3161;48.794;9.784;2023-04-24T13:52:37;13.30;97.20
6256;DHT22;3161;48.794;9.784;2023-04-24T13:55:05;13.20;97.20
6256;DHT22;3161;48.794;9.784;2023-04-24T13:57:33;13.10;97.90
6256;DHT22;3161;48.794;9.784;2023-04-24T14:00:01;12.90;98.10
6256;DHT22;3161;48.794;9.784;2023-04-24T14:02:30;12.80;99.40
6256;DHT22;3161;48.794;9.784;2023-04-24T14:04:58;12.70;99.90
6256;DHT22;3161;48.794;9.784;2023-04-24T14:07:25;12.60;99.90
6256;DHT22;3161;48.794;9.784;2023-04-24T14:09:53;12.60;99.90
6256;DHT22;3161;48.794;9.784;2023-04-24T14:12:21;12.60;99.90
6256;DHT22;3161;48.794;9.784;2023-04-24T14:14:48;12.60;99.90
6256;DHT22;3161;48.794;9.784;2023-04-24T14:17:16;12.80;99.90
6256;DHT22;3161;48.794;9.784;2023-04-24T14:19:43;13.20;99.90
6256;DHT22;3161;48.794;9.784;2023-04-24T14:22:11;13.70;99.90
6256;DHT22;3161;48.794;9.784;2023-04-24T14:24:38;14.20;99.90
6256;DHT22;3161;48.794;9.784;2023-04-24T14:27:06;15.00;99.90
6256;DHT22;3161;48.794;9.784;2023-04-24T14:29:34;16.90;99.90
6256;DHT22;3161;48.794;9.784;2023-04-24T14:32:01;18.10;98.80
6256;DHT22;3161;48.794;9.784;2023-04-24T14:34:29;18.30;98.30
6256;DHT22;3161;48.794;9.784;2023-04-24T14:36:56;17.80;96.40
6256;DHT22;3161;48.794;9.784;2023-04-24T14:39:25;17.10;96.80
6256;DHT22;3161;48.794;9.784;2023-04-24T14:41:52;15.80;97.30
6256;DHT22;3161;48.794;9.784;2023-04-24T14:44:20;15.90;98.90
6256;DHT22;3161;48.794;9.784;2023-04-24T14:46:48;15.50;99.30
6256;DHT22;3161;48.794;9.784;2023-04-24T14:49:16;15.00;99.90
6256;DHT22;3161;48.794;9.784;2023-04-24T14:51:43;14.20;99.90
6256;DHT22;3161;48.794;9.784;2023-04-24T14:54:11;13.50;99.90
6256;DHT22;3161;48.794;9.784;2023-04-24T14:56:39;13.10;99.90
6256;DHT22;3161;48.794;9.784;2023-04-24T14:59:07;12.60;99.90
6256;DHT22;3161;48.794;9.784;2023-04-24T15:01:35;12.30;99.90
6256;DHT22;3161;48.794;9.784;2023-04-24T15:04:03;12.30;99.90
6256;DHT22;3161;48.794;9.784;2023-04-24T15:06:31;12.30;99.90
6256;DHT22;3161;48.794;9.784;2023-04-24T15:08:59;12.20;99.90
6256;DHT22;3161;48.794;9.784;2023-04-24T15:11:26;12.50;99.90
6256;DHT22;3161;48.794;9.784;2023-04-24T15:13:55;12.70;99.90
6256;DHT22;3161;48.794;9.784;2023-04-24T15:16:24;13.10;99.90
6256;DHT22;3161;48.794;9.784;2023-04-24T15:18:51;13.40;99.90
6256;DHT22;3161;48.794;9.784;2023-04-24T15:21:19;13.70;99.90
6256;DHT22;3161;48.794;9.784;2023-04-24T15:23:47;13.80;99.90
6256;DHT22;3161;48.794;9.784;2023-04-24T15:26:15;13.80;99.90
6256;DHT22;3161;48.794;9.784;2023-04-24T15:29:02;13.70;99.90
6256;DHT22;3161;48.794;9.784;2023-04-24T15:31:29;13.60;99.90
6256;DHT22;3161;48.794;9.784;2023-04-24T15:33:57;13.50;99.90
6256;DHT22;3161;48.794;9.784;2023-04-24T15:36:24;13.50;99.90
6256;DHT22;3161;48.794;9.784;2023-04-24T15:38:52;13.60;99.90
6256;DHT22;3161;48.794;9.784;2023-04-24T15:41:20;13.70;99.90
6256;DHT22;3161;48.794;9.784;2023-04-24T15:43:47;13.90;99.90
6256;DHT22;3161;48.794;9.784;2023-04-24T15:46:15;13.90;99.90
6256;DHT22;3161;48.794;9.784;2023-04-24T15:51:32;13.70;99.90
6256;DHT22;3161;48.794;9.784;2023-04-24T15:54:00;13.80;99.90
6256;DHT22;3161;48.794;9.784;2023-04-24T15:56:27;13.70;99.90
6256;DHT22;3161;48.794;9.784;2023-04-24T15:58:55;13.70;99.90
6256;DHT22;3161;48.794;9.784;2023-04-24T16:01:25;13.70;99.90
6256;DHT22;3161;48.794;9.784;2023-04-24T16:03:53;13.60;99.90
6256;DHT22;3161;48.794;9.784;2023-04-24T16:06:20;13.50;99.90
6256;DHT22;3161;48.794;9.784;2023-04-24T16:08:58;13.40;99.90
6256;DHT22;3161;48.794;9.784;2023-04-24T16:11:27;13.40;99.90
6256;DHT22;3161;48.794;9.784;2023-04-24T16:13:54;13.40;99.90
6256;DHT22;3161;48.794;9.784;2023-04-24T16:16:22;13.40;99.90
6256;DHT22;3161;48.794;9.784;2023-04-24T16:18:50;13.30;99.90
6256;DHT22;3161;48.794;9.784;2023-04-24T16:21:20;13.30;99.90